CheckWX is a tool to help pilots better visualize weather data.  It is not intended as a substitute for an official pre-flight weather briefing.

19:00:44 UTC

HEGN METAR
Hurghada International Airport
Hurghada, Egypt
Current

3 hours ago

HEGN 191600Z 00000KT CAVOK 37/13 Q1007 NOSIG
Observed
Jun-19 @ 16:00 UTC
Visibility
10,000+ meters
Flight Rules
VFR
Cloud Levels
  • Clear skies
Temperature
37°C / 99°F
Dewpoint
13°C / 55°F
Humidity
24%
Altimeter
29.73" Hg
Pressure
1006.92 hPa
Previous

4 hours ago

HEGN 191500Z 00000KT CAVOK 39/13 Q1007 NOSIG
Observed
Jun-19 @ 15:00 UTC
Visibility
10,000+ meters
Flight Rules
VFR
Cloud Levels
  • Clear skies
Temperature
39°C / 102°F
Dewpoint
13°C / 55°F
Humidity
21%
Altimeter
29.73" Hg
Pressure
1006.92 hPa
Previous

5 hours ago

HEGN 191400Z 03007KT CAVOK 30/09 Q1007 NOSIG
Observed
Jun-19 @ 14:00 UTC
Wind
  • 030° at 7 KTS
Visibility
10,000+ meters
Flight Rules
VFR
Cloud Levels
  • Clear skies
Temperature
30°C / 86°F
Dewpoint
C / 48°F
Humidity
27%
Altimeter
29.73" Hg
Pressure
1006.92 hPa